Time;durP1;ratioP1;P1;durP2;ratioP2;P2;SDS_P1;SDS_P2;PMS_P1;PMS_P2;Temp;Humidity;BMP_temperature;BMP_pressure;BME280_temperature;BME280_humidity;BME280_pressure;Samples;Min_cycle;Max_cycle;Signal;HPM_P1;HPM_P2
2022/02/02 00:02:36;;;;;;;5.60;5.10;;;4.90;99.90;;;5.78;100.00;97615.94;5271577;28;20291;-68
2022/02/02 00:05:19;;;;;;;5.00;4.60;;;4.90;99.90;;;5.84;100.00;97617.28;5273433;28;20219;-66
2022/02/02 00:07:58;;;;;;;5.00;4.60;;;4.90;99.90;;;5.82;100.00;97617.94;5281719;28;20621;-65
2022/02/02 00:11:00;;;;;;;5.10;4.67;;;4.90;99.90;;;5.83;100.00;97615.50;5269192;28;20212;-67
2022/02/02 00:13:42;;;;;;;5.13;4.73;;;4.90;99.90;;;5.94;100.00;97638.25;5274320;28;20685;-70
2022/02/02 00:16:24;;;;;;;5.87;5.10;;;5.10;99.90;;;5.89;100.00;97622.66;5267171;28;20220;-66
2022/02/02 00:19:01;;;;;;;5.73;5.13;;;5.00;99.90;;;5.93;100.00;97608.56;5278197;28;20219;-67
2022/02/02 00:21:43;;;;;;;5.20;4.80;;;5.00;99.90;;;6.00;100.00;97590.47;5274499;28;20593;-66
2022/02/02 00:24:23;;;;;;;5.20;4.80;;;5.00;99.90;;;5.86;100.00;97604.69;5277144;28;20220;-66
2022/02/02 00:27:01;;;;;;;5.07;4.53;;;5.00;99.90;;;5.81;100.00;97627.22;5276393;28;20219;-67
2022/02/02 00:29:39;;;;;;;5.93;4.70;;;4.90;99.90;;;5.69;100.00;97615.28;5279081;28;20220;-72
2022/02/02 00:32:19;;;;;;;5.67;5.17;;;4.90;99.90;;;5.81;100.00;97616.19;5273003;28;20217;-67
2022/02/02 00:34:52;;;;;;;5.60;4.80;;;5.00;99.90;;;5.76;100.00;97614.97;5282001;28;20242;-67
2022/02/02 00:37:25;;;;;;;5.23;4.73;;;4.90;99.90;;;5.74;100.00;97609.78;5276549;28;20230;-68
2022/02/02 00:39:58;;;;;;;5.20;4.67;;;4.90;99.90;;;5.75;100.00;97601.41;5283171;28;20234;-65
2022/02/02 00:42:32;;;;;;;5.40;4.90;;;5.00;99.90;;;5.71;100.00;97606.16;5279310;28;20234;-69
2022/02/02 00:45:07;;;;;;;5.47;4.83;;;5.00;99.90;;;5.75;100.00;97596.34;5279281;28;20815;-67
2022/02/02 00:47:43;;;;;;;5.63;5.00;;;5.00;99.90;;;5.72;100.00;97602.81;5270210;28;20223;-67
2022/02/02 00:50:16;;;;;;;6.50;5.20;;;5.00;99.90;;;5.76;100.00;97608.25;5274236;28;20226;-66
2022/02/02 00:52:52;;;;;;;5.50;5.10;;;5.00;99.90;;;5.76;100.00;97623.44;5265058;28;20220;-65
2022/02/02 00:55:25;;;;;;;4.70;4.40;;;5.00;99.90;;;5.75;100.00;97626.78;5259806;28;20216;-67
2022/02/02 00:57:58;;;;;;;6.13;5.50;;;5.00;99.90;;;5.79;100.00;97641.41;5263706;28;20224;-66
2022/02/02 01:00:33;;;;;;;6.80;5.70;;;5.00;99.90;;;5.85;100.00;97644.41;5262196;28;20220;-65
2022/02/02 01:03:06;;;;;;;7.00;6.10;;;5.10;99.90;;;5.92;100.00;97634.69;5268034;28;20221;-66
2022/02/02 01:05:39;;;;;;;6.07;5.53;;;5.20;99.90;;;5.97;100.00;97649.50;5266834;28;20242;-67
2022/02/02 01:08:43;;;;;;;7.40;5.90;;;5.20;99.90;;;6.02;100.00;97654.91;5264168;28;20600;-65
2022/02/02 01:11:43;;;;;;;8.10;6.03;;;5.20;99.90;;;5.96;100.00;97657.00;5259921;28;20224;-66
2022/02/02 01:17:45;;;;;;;9.87;6.30;;;5.30;99.90;;;6.00;100.00;97686.88;5265517;28;20581;-66
2022/02/02 01:20:51;;;;;;;10.43;6.57;;;5.40;99.90;;;6.02;100.00;97675.19;5262859;28;20227;-67
2022/02/02 01:29:07;;;;;;;6.13;5.53;;;5.40;99.90;;;6.11;100.00;97673.31;5262435;28;20220;-68
2022/02/02 01:31:45;;;;;;;6.30;5.80;;;5.50;99.90;;;6.08;100.00;97673.97;5258586;28;20265;-68
2022/02/02 01:34:19;;;;;;;8.00;5.27;;;5.50;99.90;;;6.11;100.00;97683.44;5269149;28;20592;-68
2022/02/02 01:36:52;;;;;;;7.87;5.20;;;5.40;99.90;;;6.07;100.00;97691.63;5266852;28;20448;-73
2022/02/02 01:39:28;;;;;;;9.90;5.00;;;5.40;99.90;;;5.89;100.00;97701.28;5264308;28;20242;-70
2022/02/02 01:42:04;;;;;;;10.40;5.33;;;5.30;99.90;;;5.86;100.00;97691.78;5264102;28;20238;-69
2022/02/02 01:44:44;;;;;;;4.53;4.10;;;5.20;99.90;;;5.83;100.00;97691.56;5261945;28;20219;-69
2022/02/02 01:47:17;;;;;;;7.50;4.63;;;5.20;99.90;;;5.88;100.00;97692.78;5262961;28;20216;-69
2022/02/02 01:50:14;;;;;;;6.27;4.37;;;5.20;99.90;;;5.84;100.00;97683.22;5267160;28;20243;-71
2022/02/02 01:53:06;;;;;;;10.77;4.50;;;5.20;99.90;;;5.81;100.00;97690.59;5261585;28;20215;-68
2022/02/02 01:55:39;;;;;;;8.47;4.77;;;5.10;99.90;;;5.68;100.00;97700.63;5262031;28;21586;-69
2022/02/02 01:58:30;;;;;;;11.57;4.07;;;5.10;99.90;;;5.61;100.00;97700.97;5265774;28;20223;-68
2022/02/02 02:01:05;;;;;;;11.47;4.57;;;5.00;99.90;;;5.61;100.00;97698.41;5263555;28;20223;-69
2022/02/02 02:03:39;;;;;;;13.20;4.90;;;4.90;99.90;;;5.59;100.00;97685.63;5255467;28;20268;-70
2022/02/02 02:06:14;;;;;;;14.10;4.83;;;4.90;99.90;;;5.60;100.00;97692.44;5266515;28;20223;-69
2022/02/02 02:08:47;;;;;;;12.33;4.80;;;4.90;99.90;;;5.71;100.00;97685.63;5267210;28;20474;-68
2022/02/02 02:11:22;;;;;;;10.33;4.27;;;4.90;99.90;;;5.67;100.00;97693.78;5263346;28;20227;-69
2022/02/02 02:16:48;;;;;;;14.17;4.83;;;4.90;99.90;;;5.55;100.00;97701.38;5260562;28;20220;-68
2022/02/02 02:19:23;;;;;;;16.77;5.60;;;4.90;99.90;;;5.70;100.00;97701.63;5255053;28;20231;-68
2022/02/02 02:21:58;;;;;;;14.70;5.00;;;4.90;99.90;;;5.56;100.00;97698.06;5260862;28;20572;-70
2022/02/02 02:24:34;;;;;;;13.00;5.23;;;4.90;99.90;;;5.52;100.00;97697.72;5257025;28;20222;-69
2022/02/02 02:27:09;;;;;;;14.90;5.47;;;4.80;99.90;;;5.51;100.00;97711.16;5264644;28;20692;-68
2022/02/02 02:29:59;;;;;;;13.67;4.87;;;4.90;99.90;;;5.41;100.00;97723.16;5260649;28;20219;-68
2022/02/02 02:33:03;;;;;;;15.50;5.30;;;4.80;99.90;;;5.46;100.00;97693.06;5266519;28;20223;-68
2022/02/02 02:55:56;;;;;;;7.47;3.23;;;4.70;99.90;;;5.25;100.00;97677.19;5257068;28;20221;-70
2022/02/02 02:58:47;;;;;;;7.33;3.37;;;4.70;99.90;;;5.26;100.00;97658.66;5261455;28;20219;-69
2022/02/02 03:01:31;;;;;;;6.67;3.40;;;4.70;99.90;;;5.31;100.00;97671.69;5255607;28;20223;-69
2022/02/02 03:30:12;;;;;;;7.00;4.10;;;4.60;99.90;;;5.25;100.00;97697.44;5261135;28;20220;-69
2022/02/02 03:34:32;;;;;;;3.00;2.80;;;4.60;99.90;;;5.21;100.00;97700.53;5261890;28;20216;-68
2022/02/02 03:50:44;;;;;;;4.10;3.37;;;4.60;99.90;;;5.28;100.00;97668.94;5265192;28;20226;-70
2022/02/02 03:59:11;;;;;;;5.07;4.40;;;4.60;99.90;;;5.30;100.00;97667.41;5262596;28;20310;-70
2022/02/02 04:02:08;;;;;;;6.20;4.80;;;4.60;99.90;;;5.28;100.00;97682.47;5266788;28;20215;-69
2022/02/02 04:04:54;;;;;;;5.67;4.37;;;4.70;99.90;;;5.31;100.00;97681.81;5262348;28;20219;-70
2022/02/02 04:07:42;;;;;;;5.50;4.50;;;4.70;99.90;;;5.32;100.00;97669.28;5264745;28;20606;-70
2022/02/02 04:10:16;;;;;;;9.40;6.33;;;4.70;99.90;;;5.34;100.00;97672.78;5260941;28;20211;-70
2022/02/02 04:12:55;;;;;;;8.73;5.43;;;4.70;99.90;;;5.40;100.00;97677.44;5261823;28;20220;-70
2022/02/02 04:38:45;;;;;;;15.93;8.90;;;4.90;99.90;;;5.57;100.00;97698.94;5268187;28;20705;-69
2022/02/02 04:53:21;;;;;;;17.33;8.70;;;5.10;99.90;;;5.83;100.00;97683.97;5254758;28;20270;-68
2022/02/02 04:55:51;;;;;;;16.83;8.10;;;5.20;99.90;;;5.99;100.00;97685.13;5267236;28;20230;-68
2022/02/02 04:58:36;;;;;;;27.10;8.93;;;5.20;99.90;;;5.82;100.00;97688.94;5266017;28;20215;-67
2022/02/02 05:06:57;;;;;;;15.67;7.07;;;5.10;99.90;;;5.94;100.00;97699.13;5260459;28;20220;-66
2022/02/02 05:09:40;;;;;;;17.47;8.03;;;5.20;99.90;;;6.04;100.00;97696.50;5262456;28;20226;-68
2022/02/02 05:18:18;;;;;;;14.93;6.87;;;5.20;99.90;;;5.87;100.00;97723.13;5255478;28;20216;-68
2022/02/02 05:21:32;;;;;;;15.50;7.40;;;5.20;99.90;;;5.95;100.00;97729.69;5260952;28;20219;-69
2022/02/02 05:45:13;;;;;;;14.50;6.70;;;5.00;99.90;;;5.76;100.00;97735.03;5247751;28;20228;-69
2022/02/02 05:50:58;;;;;;;16.90;7.13;;;5.00;99.90;;;5.70;100.00;97739.66;5263113;28;20219;-68
2022/02/02 05:53:31;;;;;;;19.10;7.03;;;5.00;99.90;;;5.70;100.00;97739.66;5267661;28;20428;-68
2022/02/02 05:56:07;;;;;;;14.80;6.53;;;5.00;99.90;;;5.71;100.00;97741.41;5267460;28;20228;-68
2022/02/02 05:58:41;;;;;;;14.37;6.90;;;5.00;99.90;;;5.70;100.00;97726.97;5267810;28;20603;-68
2022/02/02 06:01:15;;;;;;;16.37;7.63;;;5.00;99.90;;;5.78;100.00;97728.44;5267353;28;20219;-69
2022/02/02 06:03:55;;;;;;;11.70;6.50;;;5.00;99.90;;;5.70;100.00;97733.72;5268906;28;20227;-68
2022/02/02 06:06:29;;;;;;;12.93;6.47;;;4.90;99.90;;;5.65;100.00;97733.34;5268417;28;20223;-68
2022/02/02 06:09:02;;;;;;;14.57;6.63;;;4.90;99.90;;;5.64;100.00;97731.59;5263723;28;20226;-69
2022/02/02 06:11:37;;;;;;;14.30;6.67;;;4.90;99.90;;;5.65;100.00;97741.84;5263951;28;20230;-67
2022/02/02 06:14:11;;;;;;;22.70;7.93;;;4.90;99.90;;;5.73;100.00;97727.19;5265443;28;20215;-68
2022/02/02 06:16:46;;;;;;;19.43;7.33;;;4.90;99.90;;;5.87;100.00;97733.28;5255610;28;20223;-67
2022/02/02 06:19:23;;;;;;;21.07;7.60;;;5.00;99.90;;;5.83;100.00;97736.34;5268482;28;20235;-68
2022/02/02 06:22:09;;;;;;;20.97;7.03;;;5.00;99.90;;;5.97;100.00;97740.81;5266509;28;20600;-67
2022/02/02 06:24:49;;;;;;;16.00;7.17;;;5.00;99.90;;;5.86;100.00;97760.28;5268236;28;20242;-67
2022/02/02 06:27:25;;;;;;;21.33;7.70;;;5.00;99.90;;;5.85;100.00;97791.50;5252083;28;20259;-67
2022/02/02 06:30:04;;;;;;;16.93;7.30;;;5.00;99.90;;;5.93;100.00;97773.44;5247838;28;20258;-66
2022/02/02 06:32:41;;;;;;;15.60;6.83;;;5.00;99.90;;;5.85;100.00;97809.25;5247311;28;20234;-67
2022/02/02 06:35:17;;;;;;;20.23;6.80;;;5.10;99.90;;;5.83;100.00;97815.84;5263549;28;20219;-68
2022/02/02 06:37:51;;;;;;;20.50;6.27;;;5.00;99.90;;;5.77;100.00;97817.94;5268213;28;20683;-68
2022/02/02 06:40:25;;;;;;;16.67;6.57;;;5.00;99.90;;;5.81;100.00;97829.22;5267145;28;20726;-68
2022/02/02 06:42:58;;;;;;;14.30;6.50;;;5.00;99.90;;;5.73;100.00;97835.34;5267772;28;20234;-68
2022/02/02 06:45:31;;;;;;;13.43;6.23;;;5.00;99.90;;;5.65;100.00;97840.72;5267437;28;20216;-68
2022/02/02 06:48:05;;;;;;;13.60;5.40;;;5.00;99.90;;;5.77;100.00;97833.16;5267608;28;20302;-68
2022/02/02 06:50:45;;;;;;;12.77;6.57;;;5.00;99.90;;;5.73;100.00;97833.69;5267232;28;20708;-67
2022/02/02 06:53:26;;;;;;;13.73;6.10;;;5.00;99.90;;;5.71;100.00;97837.75;5246743;28;20227;-67
2022/02/02 06:56:13;;;;;;;16.43;6.20;;;4.90;99.90;;;5.79;100.00;97846.84;5246940;28;20228;-68
2022/02/02 06:59:08;;;;;;;16.23;6.23;;;5.00;99.90;;;5.71;100.00;97858.03;5264480;28;20220;-68
2022/02/02 07:01:57;;;;;;;15.57;6.47;;;5.00;99.90;;;5.72;100.00;97853.84;5267441;28;20224;-71
2022/02/02 07:08:10;;;;;;;13.67;6.30;;;5.00;99.90;;;5.74;100.00;97868.41;5253701;28;20220;-68
2022/02/02 07:11:01;;;;;;;8.97;5.70;;;5.00;99.90;;;5.75;100.00;97882.88;5267376;28;20269;-66
2022/02/02 07:13:48;;;;;;;8.97;6.13;;;5.00;99.90;;;5.74;100.00;97868.41;5267421;28;20220;-68
2022/02/02 07:16:34;;;;;;;15.30;7.10;;;5.00;99.90;;;5.76;100.00;97841.53;5267482;28;20709;-67
2022/02/02 07:19:16;;;;;;;19.43;6.90;;;5.00;99.90;;;5.77;100.00;97855.97;5267548;28;20231;-68
2022/02/02 07:30:43;;;;;;;14.73;6.80;;;5.00;99.90;;;5.84;100.00;97870.91;5266832;28;20223;-66
2022/02/02 07:33:27;;;;;;;14.57;7.20;;;5.10;99.90;;;5.86;100.00;97878.59;5267274;28;20246;-68
2022/02/02 07:36:09;;;;;;;14.27;7.40;;;5.10;99.90;;;5.90;100.00;97874.66;5266347;28;20223;-67
2022/02/02 07:38:55;;;;;;;14.70;6.80;;;5.10;99.90;;;5.93;100.00;97885.03;5254602;28;20331;-68
2022/02/02 07:41:33;;;;;;;19.87;7.57;;;5.20;99.90;;;5.93;100.00;97877.44;5256775;28;20230;-69
2022/02/02 07:44:13;;;;;;;20.50;7.33;;;5.20;99.90;;;5.91;100.00;97881.50;5251633;28;20224;-67
2022/02/02 07:46:49;;;;;;;15.63;6.97;;;5.20;99.90;;;5.97;100.00;97880.31;5266003;28;20226;-68
2022/02/02 07:49:29;;;;;;;14.13;7.00;;;5.20;99.90;;;5.99;100.00;97891.47;5265511;28;20224;-67
2022/02/02 07:52:04;;;;;;;19.67;8.53;;;5.20;99.90;;;5.97;100.00;97876.91;5267034;28;20234;-66
2022/02/02 07:54:43;;;;;;;19.43;7.33;;;5.20;99.90;;;6.01;100.00;97889.03;5254201;28;20216;-67
2022/02/02 07:57:28;;;;;;;14.53;7.80;;;5.30;99.90;;;6.05;100.00;97901.19;5263117;28;20259;-67
2022/02/02 08:00:08;;;;;;;17.07;7.87;;;5.20;99.90;;;6.08;100.00;97909.03;5252452;28;20216;-67
2022/02/02 08:02:53;;;;;;;22.97;7.93;;;5.30;99.90;;;6.13;100.00;97902.66;5249577;28;20254;-67
2022/02/02 08:05:28;;;;;;;25.23;9.13;;;5.30;99.90;;;6.32;100.00;97908.34;5263057;28;20219;-67
2022/02/02 08:08:12;;;;;;;16.10;7.93;;;5.30;99.90;;;6.24;100.00;97911.97;5271005;28;20227;-66
2022/02/02 08:10:47;;;;;;;16.80;7.63;;;5.30;99.90;;;6.30;100.00;97911.53;5250431;28;20671;-68
2022/02/02 08:13:26;;;;;;;19.13;8.10;;;5.40;99.90;;;6.24;100.00;97923.78;5260422;28;20216;-68
2022/02/02 08:16:02;;;;;;;20.10;7.77;;;5.40;99.90;;;6.22;100.00;97926.19;5270368;28;20659;-67
2022/02/02 08:18:37;;;;;;;20.97;8.20;;;5.40;99.90;;;6.43;100.00;97936.16;5270613;28;20215;-67
2022/02/02 08:21:10;;;;;;;17.77;7.70;;;5.50;99.90;;;6.33;100.00;97949.84;5270014;28;20221;-68
2022/02/02 08:23:44;;;;;;;14.27;7.40;;;5.50;99.90;;;6.38;100.00;97943.47;5270414;28;20234;-66
2022/02/02 08:26:17;;;;;;;17.90;7.87;;;5.50;99.90;;;6.56;100.00;97932.88;5269627;28;20224;-67
2022/02/02 08:28:56;;;;;;;18.07;7.90;;;5.60;99.90;;;6.48;100.00;97935.72;5270806;28;20257;-67
2022/02/02 08:31:29;;;;;;;18.50;7.67;;;5.50;99.90;;;6.43;100.00;97941.25;5284925;28;20592;-67
2022/02/02 08:34:08;;;;;;;18.50;6.70;;;5.50;99.90;;;6.35;100.00;97942.31;5291962;28;20717;-67
2022/02/02 08:36:52;;;;;;;18.03;7.10;;;5.50;99.90;;;6.45;100.00;97934.63;5291311;28;20231;-67
2022/02/02 08:39:42;;;;;;;12.00;7.10;;;5.50;99.90;;;6.59;100.00;97928.03;5291395;28;20736;-67
2022/02/02 08:42:15;;;;;;;17.93;7.33;;;5.60;99.90;;;6.62;100.00;97924.06;5286018;28;20216;-67
2022/02/02 08:45:02;;;;;;;16.20;6.93;;;5.60;99.90;;;6.66;100.00;97941.28;5270501;28;20596;-67
2022/02/02 08:47:35;;;;;;;15.97;7.13;;;5.70;99.90;;;6.77;100.00;97940.41;5257573;22;20228;-69
2022/02/02 08:50:09;;;;;;;18.67;6.93;;;5.70;99.90;;;6.85;100.00;97946.03;5199398;28;20563;-70
2022/02/02 08:52:51;;;;;;;15.17;6.57;;;5.80;99.90;;;6.79;100.00;97949.81;5208003;28;20228;-66
2022/02/02 08:56:06;;;;;;;13.07;6.10;;;5.80;99.90;;;6.69;100.00;97938.94;5194518;28;20702;-67
2022/02/02 08:58:42;;;;;;;18.27;7.43;;;5.80;99.90;;;6.95;100.00;97945.03;5186739;28;20226;-69
2022/02/02 09:01:23;;;;;;;16.90;7.13;;;5.90;99.90;;;6.89;100.00;97944.59;5187153;28;20244;-68
2022/02/02 09:06:46;;;;;;;16.47;7.23;;;6.10;99.90;;;6.98;100.00;97955.44;5183007;28;20219;-67
2022/02/02 09:09:22;;;;;;;15.50;6.73;;;6.20;99.90;;;7.23;100.00;97956.41;5166764;28;20326;-67
2022/02/02 09:21:08;;;;;;;16.93;6.83;;;6.40;99.90;;;7.09;100.00;97979.06;5166905;28;20308;-66
2022/02/02 09:23:34;;;;;;;16.03;6.30;;;6.40;99.90;;;7.17;100.00;97988.16;5186630;28;20663;-67
2022/02/02 09:31:25;;;;;;;17.77;6.73;;;6.40;99.90;;;7.09;100.00;97989.25;5179487;28;20601;-70
2022/02/02 09:32:25;;;;;;;14.93;7.13;;;6.30;99.90;;;7.14;100.00;97978.63;5147893;28;20228;-66
2022/02/02 09:35:00;;;;;;;15.03;6.67;;;6.30;99.90;;;7.06;100.00;97994.09;5146489;28;20234;-66
2022/02/02 09:37:33;;;;;;;13.00;5.97;;;6.30;99.90;;;7.14;100.00;97998.97;5156531;28;20555;-66
2022/02/02 09:40:26;;;;;;;13.60;6.03;;;6.30;99.90;;;7.15;100.00;98008.38;5183715;28;20325;-67
2022/02/02 09:43:03;;;;;;;16.17;6.97;;;6.30;99.90;;;7.16;100.00;98017.75;5186593;28;20227;-66
2022/02/02 09:45:40;;;;;;;14.03;6.20;;;6.30;99.90;;;7.10;100.00;98012.25;5186365;28;20322;-66
2022/02/02 09:48:22;;;;;;;14.83;6.13;;;6.30;99.90;;;7.07;100.00;98017.09;5186471;28;20238;-67
2022/02/02 09:51:02;;;;;;;11.10;6.23;;;6.30;99.90;;;7.13;100.00;98015.00;5182074;28;20245;-67
2022/02/02 09:53:40;;;;;;;13.63;6.73;;;6.30;99.90;;;7.31;100.00;98006.94;5186607;28;20214;-68
2022/02/02 09:56:35;;;;;;;16.87;6.60;;;6.40;99.90;;;7.29;100.00;98011.91;5186328;28;20333;-67
2022/02/02 09:59:47;;;;;;;15.73;5.70;;;6.40;99.90;;;7.22;100.00;98018.22;5185830;28;20241;-70
2022/02/02 10:02:36;;;;;;;13.80;6.53;;;6.40;99.90;;;7.32;100.00;98011.22;5186385;28;20706;-70
2022/02/02 10:05:15;;;;;;;13.47;6.97;;;6.40;99.90;;;7.25;100.00;98042.09;5186240;28;20226;-70
2022/02/02 10:08:08;;;;;;;17.37;8.13;;;6.40;99.90;;;7.18;100.00;98041.66;5186522;28;20261;-68
2022/02/02 10:14:02;;;;;;;17.60;6.23;;;6.40;99.90;;;7.09;100.00;98050.25;5185826;28;20227;-69
2022/02/02 10:16:44;;;;;;;19.67;6.87;;;6.40;99.90;;;7.18;100.00;98043.28;5185716;28;20763;-66
2022/02/02 10:19:20;;;;;;;15.33;6.20;;;6.40;99.90;;;7.19;100.00;98045.06;5186013;28;20226;-68
2022/02/02 10:21:55;;;;;;;16.87;6.57;;;6.50;99.90;;;7.22;100.00;98056.34;5185338;28;20226;-67
2022/02/02 10:24:46;;;;;;;17.03;6.80;;;6.50;99.90;;;7.25;100.00;98058.22;5184639;28;20333;-69
2022/02/02 10:27:32;;;;;;;15.00;6.33;;;6.50;99.90;;;7.22;100.00;98053.78;5166717;28;20226;-67
2022/02/02 10:30:23;;;;;;;13.97;6.00;;;6.50;99.90;;;7.07;98.18;98052.69;5164493;28;20234;-69
2022/02/02 10:32:56;;;;;;;13.80;6.00;;;6.40;99.90;;;7.06;99.02;98055.09;5165202;28;20228;-69
2022/02/02 10:35:35;;;;;;;16.10;7.07;;;6.40;99.90;;;7.15;100.00;98064.31;5165476;28;20219;-71
2022/02/02 10:38:31;;;;;;;13.50;5.90;;;6.40;99.90;;;7.23;100.00;98077.56;5165141;28;20231;-71
2022/02/02 10:41:17;;;;;;;18.37;5.93;;;6.50;99.90;;;7.19;99.87;98063.75;5167418;28;20716;-67
2022/02/02 10:44:18;;;;;;;17.07;6.70;;;6.50;99.90;;;7.28;100.00;98057.56;5165097;28;20230;-71
2022/02/02 10:47:01;;;;;;;13.90;6.20;;;6.60;99.90;;;7.31;100.00;98067.94;5144560;28;20228;-68
2022/02/02 10:49:47;;;;;;;18.07;6.10;;;6.50;99.90;;;7.21;99.94;98082.53;5144970;28;20326;-68
2022/02/02 10:52:39;;;;;;;16.27;6.03;;;6.50;99.90;;;7.17;99.16;98060.19;5144514;28;20322;-69
2022/02/02 10:55:33;;;;;;;14.33;6.73;;;6.50;99.90;;;7.20;100.00;98044.28;5144726;28;20723;-66
2022/02/02 10:58:30;;;;;;;17.17;6.30;;;6.50;99.90;;;7.22;100.00;98037.66;5155569;28;20226;-70
2022/02/02 11:01:23;;;;;;;12.67;6.50;;;6.50;99.90;;;7.22;100.00;98046.16;5146934;28;20220;-70
2022/02/02 11:06:50;;;;;;;14.87;6.03;;;6.50;99.90;;;7.27;98.80;98045.59;5144074;28;20227;-70
2022/02/02 11:09:24;;;;;;;20.27;7.97;;;6.50;99.90;;;7.23;94.97;98052.13;5159286;28;20223;-70
2022/02/02 11:11:58;;;;;;;20.67;7.60;;;6.60;99.90;;;7.31;97.86;98056.13;5161587;28;20231;-71
2022/02/02 11:14:43;;;;;;;15.90;6.77;;;6.60;99.90;;;7.27;96.54;98053.22;5154130;28;20223;-68
2022/02/02 11:17:24;;;;;;;15.77;6.83;;;6.60;99.90;;;7.43;96.71;98048.50;5164614;28;20219;-70
2022/02/02 11:20:02;;;;;;;14.10;6.50;;;6.80;99.90;;;7.51;96.85;98044.84;5155653;28;20648;-70
2022/02/02 11:22:37;;;;;;;16.10;6.03;;;6.90;99.90;;;7.48;93.30;98051.38;5164215;28;20233;-70
2022/02/02 11:25:54;;;;;;;15.43;6.30;;;6.90;99.90;;;7.37;89.26;98064.19;5157542;28;20329;-70
2022/02/02 11:28:33;;;;;;;11.93;5.57;;;6.90;99.90;;;7.47;89.33;98053.03;5144816;28;20256;-70
2022/02/02 11:31:14;;;;;;;14.83;6.53;;;7.10;99.90;;;7.56;94.09;98048.59;5150666;28;20233;-70
2022/02/02 11:33:54;;;;;;;14.80;5.80;;;7.10;99.90;;;7.58;91.03;98052.16;5149922;28;20227;-69
2022/02/02 11:36:33;;;;;;;12.40;6.17;;;7.10;99.90;;;7.73;93.33;98060.00;5149918;28;20219;-69
2022/02/02 11:39:09;;;;;;;14.17;5.63;;;7.20;99.90;;;7.59;87.86;98076.81;5145465;28;20699;-70
2022/02/02 11:41:58;;;;;;;12.87;5.30;;;7.20;99.90;;;7.60;88.42;98083.66;5156498;28;20698;-70
2022/02/02 11:44:46;;;;;;;12.63;6.07;;;7.20;99.90;;;7.62;87.97;98082.09;5158409;28;20242;-70
2022/02/02 11:47:44;;;;;;;12.23;6.10;;;7.20;99.90;;;7.67;89.38;98067.19;5177217;28;20230;-68
2022/02/02 11:50:48;;;;;;;12.97;5.47;;;7.20;99.90;;;7.86;89.84;98061.72;5174295;28;20238;-69
2022/02/02 11:54:01;;;;;;;11.23;5.60;;;7.30;99.90;;;7.85;92.68;98065.06;5164416;28;20223;-69
2022/02/02 12:00:17;;;;;;;12.17;5.93;;;7.20;99.90;;;7.71;90.23;98055.56;5148125;28;20634;-69
2022/02/02 12:03:12;;;;;;;11.00;5.90;;;7.20;99.90;;;7.83;95.18;98067.47;5177828;28;20226;-69
2022/02/02 12:05:59;;;;;;;15.37;6.97;;;7.20;99.90;;;7.93;97.43;98071.56;5184652;28;20645;-70
2022/02/02 12:08:54;;;;;;;24.10;9.67;;;7.20;99.90;;;7.87;94.55;98074.56;5163700;28;20227;-70
2022/02/02 12:44:39;;;;;;;15.07;6.07;;;7.20;99.90;;;7.69;90.83;98103.78;5162737;28;20607;-66
2022/02/02 12:45:34;;;;;;;17.57;6.00;;;7.30;99.90;;;7.91;87.55;98118.94;5164024;28;20238;-68
2022/02/02 12:48:02;;;;;;;14.00;6.33;;;7.40;99.90;;;8.00;88.57;98122.13;5166039;28;20235;-67
2022/02/02 12:54:19;;;;;;;22.47;6.83;;;7.40;99.90;;;7.89;89.66;98112.84;5168109;28;20235;-67
2022/02/02 12:56:55;;;;;;;14.27;5.60;;;7.30;99.90;;;7.80;88.24;98132.53;5160383;28;20222;-67
2022/02/02 12:59:53;;;;;;;12.33;5.03;;;7.20;99.90;;;7.85;93.50;98123.59;5187784;28;20226;-67
2022/02/02 13:02:26;;;;;;;10.50;5.80;;;7.20;99.90;;;7.80;85.02;98133.41;5188372;28;20708;-67
2022/02/02 13:05:01;;;;;;;13.23;5.23;;;7.30;99.90;;;7.83;87.10;98127.66;5187987;28;20234;-67
2022/02/02 13:07:37;;;;;;;9.10;5.33;;;7.30;99.90;;;7.87;86.87;98130.56;5188396;28;20662;-67
2022/02/02 13:10:16;;;;;;;13.57;5.83;;;7.30;99.90;;;7.90;87.56;98130.78;5185171;28;20223;-67
2022/02/02 13:12:53;;;;;;;15.63;5.73;;;7.30;99.90;;;8.02;90.55;98120.59;5169683;28;20231;-68
2022/02/02 13:15:34;;;;;;;16.57;5.30;;;7.40;99.90;;;8.16;91.38;98121.56;5168216;28;20229;-68
2022/02/02 13:18:15;;;;;;;11.77;5.20;;;7.50;99.90;;;8.26;86.28;98136.69;5168618;28;20233;-68
2022/02/02 13:21:03;;;;;;;14.17;5.47;;;7.70;99.90;;;8.32;87.50;98128.59;5171835;28;20257;-67
2022/02/02 13:23:51;;;;;;;11.97;5.40;;;7.80;99.90;;;8.21;77.62;98137.13;5187899;28;20230;-66
2022/02/02 13:26:32;;;;;;;13.03;5.10;;;7.80;99.90;;;8.27;82.60;98157.94;5161475;28;20238;-66
2022/02/02 13:29:12;;;;;;;11.70;5.30;;;7.70;99.90;;;8.35;86.08;98157.72;5172555;28;20293;-67
2022/02/02 13:31:56;;;;;;;14.57;4.83;;;7.80;99.90;;;8.46;90.46;98155.06;5186636;28;20229;-67
2022/02/02 13:34:41;;;;;;;10.93;4.50;;;7.70;99.90;;;8.45;91.39;98166.91;5183257;28;20269;-66
2022/02/02 13:43:49;;;;;;;11.73;4.60;;;7.80;99.90;;;8.44;78.37;98183.00;5164308;28;20221;-67
2022/02/02 13:46:46;;;;;;;10.90;4.33;;;7.80;99.90;;;8.40;77.74;98195.41;5168380;28;20711;-67
2022/02/02 13:49:55;;;;;;;10.47;5.00;;;7.80;99.90;;;8.38;78.43;98192.69;5166334;28;20617;-67
2022/02/02 13:52:35;;;;;;;11.20;4.80;;;7.80;99.90;;;8.35;83.09;98198.47;5165616;28;20235;-68
2022/02/02 13:55:44;;;;;;;10.53;4.30;;;7.70;99.90;;;8.43;87.04;98195.59;5166170;28;20278;-67
2022/02/02 14:01:13;;;;;;;14.53;4.77;;;7.70;99.90;;;8.48;86.43;98201.91;5163438;28;20231;-67
2022/02/02 14:04:01;;;;;;;9.50;4.57;;;7.70;99.90;;;8.49;89.21;98209.66;5162546;28;20628;-67
2022/02/02 14:06:49;;;;;;;11.00;4.50;;;7.70;99.90;;;8.47;81.53;98221.41;5145978;28;20236;-66
2022/02/02 14:09:30;;;;;;;11.43;4.77;;;7.80;99.90;;;8.55;85.32;98217.72;5157962;28;20224;-67
2022/02/02 14:32:08;;;;;;;10.67;4.83;;;7.70;99.90;;;8.45;90.08;98228.06;5145304;28;20322;-66
2022/02/02 14:35:01;;;;;;;12.90;4.70;;;7.60;99.90;;;8.37;83.40;98236.78;5146823;28;20228;-66
2022/02/02 14:37:41;;;;;;;12.77;5.53;;;7.60;99.90;;;8.28;88.88;98231.03;5185750;28;20226;-67
2022/02/02 14:40:42;;;;;;;10.03;5.43;;;7.50;99.90;;;8.22;92.60;98230.59;5144735;28;20228;-68
2022/02/02 14:43:18;;;;;;;13.17;6.53;;;7.40;99.90;;;8.20;92.29;98237.22;5148397;28;20223;-67
2022/02/02 14:45:56;;;;;;;11.97;5.77;;;7.30;99.90;;;8.22;92.78;98239.13;5162729;28;20324;-67
2022/02/02 14:48:34;;;;;;;11.67;5.70;;;7.30;99.90;;;8.15;92.76;98233.47;5171202;28;20649;-67
2022/02/02 14:51:17;;;;;;;10.27;5.17;;;7.30;99.90;;;8.16;94.22;98242.88;5146518;28;20223;-67
2022/02/02 14:54:27;;;;;;;10.20;5.03;;;7.30;99.90;;;8.22;96.93;98246.75;5147236;28;20643;-69
2022/02/02 15:06:53;;;;;;;14.67;5.43;;;7.30;99.90;;;8.04;92.52;98256.50;5144082;28;20290;-69
2022/02/02 15:09:27;;;;;;;15.23;6.30;;;7.30;99.90;;;7.95;91.33;98250.69;5144464;28;20260;-69
2022/02/02 15:29:39;;;;;;;15.83;6.17;;;6.70;99.90;;;7.45;98.24;98271.63;5299983;27;20606;-69
2022/02/02 15:32:12;;;;;;;11.33;6.40;;;6.60;99.90;;;7.44;98.74;98280.03;5281970;28;20215;-69
2022/02/02 15:34:48;;;;;;;14.03;6.10;;;6.60;99.90;;;7.34;95.08;98281.75;5278656;28;20222;-69
2022/02/02 15:37:30;;;;;;;11.87;5.90;;;6.60;99.90;;;7.33;95.31;98300.31;5281620;28;20218;-70
2022/02/02 15:40:08;;;;;;;13.20;6.23;;;6.60;99.90;;;7.33;96.92;98295.25;5272637;28;20223;-69
2022/02/02 16:00:15;;;;;;;31.13;17.97;;;6.60;99.90;;;7.29;99.87;98293.22;5230775;28;20220;-68
2022/02/02 16:05:48;;;;;;;25.30;15.60;;;6.50;99.90;;;7.19;100.00;98297.59;5273622;28;20222;-68
2022/02/02 16:08:23;;;;;;;14.73;8.87;;;6.40;99.90;;;7.10;100.00;98296.91;5274461;28;20642;-69
2022/02/02 16:11:14;;;;;;;11.83;7.27;;;6.30;99.90;;;7.04;100.00;98305.69;5276272;28;20215;-71
2022/02/02 16:13:50;;;;;;;13.13;7.63;;;6.30;99.90;;;6.99;100.00;98308.78;5279499;28;20219;-70
2022/02/02 16:19:33;;;;;;;11.50;7.50;;;6.20;99.90;;;6.93;100.00;98307.41;5227494;28;20223;-69
2022/02/02 16:25:12;;;;;;;12.67;6.90;;;6.10;99.90;;;6.81;100.00;98321.66;5271919;28;20231;-70
2022/02/02 16:36:31;;;;;;;11.87;7.47;;;5.90;99.90;;;6.56;100.00;98334.97;5209958;28;20237;-68
2022/02/02 16:39:10;;;;;;;10.97;6.90;;;5.80;99.90;;;6.56;100.00;98350.22;5258986;28;20220;-69